createdAt,value
2018-05-25T00:01:30.578Z,99.90
2018-05-25T00:03:58.122Z,99.90
2018-05-25T00:06:25.652Z,99.90
2018-05-25T00:08:53.216Z,99.90
2018-05-25T00:11:20.764Z,99.90
2018-05-25T00:13:48.291Z,99.90
2018-05-25T00:16:16.799Z,99.90
2018-05-25T00:18:44.328Z,99.90
2018-05-25T00:21:11.894Z,99.90
2018-05-25T00:23:39.442Z,99.90
2018-05-25T00:26:07.961Z,99.90
2018-05-25T00:28:35.487Z,99.90
2018-05-25T00:31:03.009Z,99.90
2018-05-25T00:33:31.322Z,99.90
2018-05-25T00:36:08.256Z,99.90
2018-05-25T00:38:35.924Z,99.90
2018-05-25T00:41:04.217Z,99.90
2018-05-25T00:43:31.772Z,99.90
2018-05-25T00:46:00.291Z,99.90
2018-05-25T00:48:27.817Z,99.90
2018-05-25T00:50:55.388Z,99.90
2018-05-25T00:53:22.920Z,99.90
2018-05-25T00:55:50.475Z,99.90
2018-05-25T00:58:18.045Z,99.90
2018-05-25T01:00:45.621Z,99.90
2018-05-25T01:03:13.145Z,99.90
2018-05-25T01:05:40.717Z,99.90
2018-05-25T01:08:08.282Z,99.90
2018-05-25T01:10:36.569Z,99.90
2018-05-25T01:13:04.133Z,99.90
2018-05-25T01:15:31.653Z,99.90
2018-05-25T01:17:59.208Z,99.90
2018-05-25T01:20:26.753Z,99.90
2018-05-25T01:22:54.319Z,99.90
2018-05-25T01:25:21.861Z,99.90
2018-05-25T01:27:50.348Z,99.90
2018-05-25T01:30:17.893Z,99.90
2018-05-25T01:32:45.418Z,99.90
2018-05-25T01:35:13.736Z,99.90
2018-05-25T01:37:41.256Z,99.90
2018-05-25T01:40:08.793Z,99.90
2018-05-25T01:42:37.133Z,99.90
2018-05-25T01:45:04.663Z,99.90
2018-05-25T01:47:32.227Z,99.90
2018-05-25T01:49:59.759Z,99.90
2018-05-25T01:52:27.324Z,99.90
2018-05-25T01:54:54.898Z,99.90
2018-05-25T01:57:22.420Z,99.90
2018-05-25T01:59:49.973Z,99.90
2018-05-25T02:02:17.534Z,99.90
2018-05-25T02:04:45.097Z,99.90
2018-05-25T02:07:13.421Z,99.90
2018-05-25T02:09:40.975Z,99.90
2018-05-25T02:12:08.536Z,99.90
2018-05-25T02:14:36.060Z,99.90
2018-05-25T02:17:03.626Z,99.90
2018-05-25T02:19:38.757Z,99.90
2018-05-25T02:22:07.042Z,99.90
2018-05-25T02:24:34.597Z,99.90
2018-05-25T02:27:02.893Z,99.90
2018-05-25T02:29:30.441Z,99.90
2018-05-25T02:31:57.970Z,99.90
2018-05-25T02:34:25.489Z,99.90
2018-05-25T02:36:53.044Z,99.90
2018-05-25T02:39:20.573Z,99.90
2018-05-25T02:41:48.143Z,99.90
2018-05-25T02:44:15.656Z,99.90
2018-05-25T02:46:43.245Z,99.90
2018-05-25T02:49:10.765Z,99.90
2018-05-25T02:51:38.338Z,99.90
2018-05-25T02:54:05.887Z,99.90
2018-05-25T02:56:33.408Z,99.90
2018-05-25T02:59:01.178Z,99.90
2018-05-25T03:01:29.692Z,99.90
2018-05-25T03:03:57.259Z,99.90
2018-05-25T03:06:24.825Z,99.90
2018-05-25T03:08:52.386Z,99.90
2018-05-25T03:11:19.913Z,99.90
2018-05-25T03:13:47.473Z,99.90
2018-05-25T03:16:14.997Z,99.90
2018-05-25T03:18:43.532Z,99.90
2018-05-25T03:21:11.090Z,99.90
2018-05-25T03:23:38.650Z,99.90
2018-05-25T03:26:07.944Z,99.90
2018-05-25T03:28:35.480Z,99.90
2018-05-25T03:31:03.072Z,99.90
2018-05-25T03:33:30.604Z,99.90
2018-05-25T03:35:58.168Z,99.90
2018-05-25T03:38:25.686Z,99.90
2018-05-25T03:40:53.236Z,99.90
2018-05-25T03:43:20.754Z,99.90
2018-05-25T03:45:48.265Z,99.90
2018-05-25T03:48:15.824Z,99.90
2018-05-25T03:50:43.396Z,99.90
2018-05-25T03:53:10.969Z,99.90
2018-05-25T03:55:38.499Z,99.90
2018-05-25T03:58:06.064Z,99.90
2018-05-25T04:00:45.533Z,99.90
2018-05-25T04:03:13.088Z,99.90
2018-05-25T04:05:40.660Z,99.90
2018-05-25T04:08:08.220Z,99.90
2018-05-25T04:10:35.749Z,99.90
2018-05-25T04:13:03.307Z,99.90
2018-05-25T04:15:30.885Z,99.90
2018-05-25T04:17:59.381Z,99.90
2018-05-25T04:20:26.957Z,99.90
2018-05-25T04:22:54.505Z,99.90
2018-05-25T04:25:22.045Z,99.90
2018-05-25T04:27:49.603Z,99.90
2018-05-25T04:30:17.161Z,99.90
2018-05-25T04:32:44.692Z,99.90
2018-05-25T04:35:12.570Z,99.90
2018-05-25T04:37:40.092Z,99.90
2018-05-25T04:40:07.677Z,99.90
2018-05-25T04:42:35.229Z,99.90
2018-05-25T04:45:02.756Z,99.90
2018-05-25T04:47:30.322Z,99.90
2018-05-25T04:49:59.577Z,99.90
2018-05-25T04:52:27.136Z,99.90
2018-05-25T04:54:54.677Z,99.90
2018-05-25T04:57:24.210Z,99.90
2018-05-25T04:59:51.745Z,99.90
2018-05-25T05:02:19.315Z,99.90
2018-05-25T05:04:46.873Z,99.90
2018-05-25T05:07:14.433Z,99.90
2018-05-25T05:09:41.991Z,99.90
2018-05-25T05:12:10.509Z,99.90
2018-05-25T05:14:38.097Z,99.90
2018-05-25T05:17:05.621Z,99.90
2018-05-25T05:19:34.101Z,99.90
2018-05-25T05:22:01.657Z,99.90
2018-05-25T05:24:29.192Z,99.90
2018-05-25T05:26:56.732Z,99.90
2018-05-25T05:29:24.256Z,99.90
2018-05-25T05:31:52.585Z,99.90
2018-05-25T05:34:20.144Z,99.90
2018-05-25T05:36:47.709Z,99.90
2018-05-25T05:39:15.360Z,99.90
2018-05-25T05:41:46.917Z,99.90
2018-05-25T05:44:19.209Z,99.90
2018-05-25T05:46:46.793Z,99.90
2018-05-25T05:49:14.350Z,99.90
2018-05-25T05:51:41.877Z,99.90
2018-05-25T05:54:10.401Z,99.90
2018-05-25T05:56:38.684Z,99.90
2018-05-25T05:59:06.980Z,99.90
2018-05-25T06:01:34.562Z,99.90
2018-05-25T06:04:02.089Z,99.90
2018-05-25T06:06:30.478Z,99.90
2018-05-25T06:08:58.004Z,99.90
2018-05-25T06:11:26.371Z,99.90
2018-05-25T06:13:53.880Z,99.90
2018-05-25T06:16:23.562Z,99.90
2018-05-25T06:18:51.113Z,99.90
2018-05-25T06:21:18.655Z,99.90
2018-05-25T06:23:47.053Z,99.90
2018-05-25T06:26:15.567Z,99.90
2018-05-25T06:28:43.117Z,99.90
2018-05-25T06:31:10.665Z,99.90
2018-05-25T06:33:38.212Z,99.90
2018-05-25T06:36:05.876Z,99.90
2018-05-25T06:38:34.204Z,99.90
2018-05-25T06:41:01.765Z,99.90
2018-05-25T06:43:29.301Z,99.90
2018-05-25T06:45:56.861Z,99.90
2018-05-25T06:48:24.421Z,99.90
2018-05-25T06:50:51.954Z,99.90
2018-05-25T06:53:19.505Z,99.90
2018-05-25T06:55:47.056Z,99.90
2018-05-25T06:58:17.350Z,99.90
2018-05-25T07:00:44.904Z,99.90
2018-05-25T07:03:12.445Z,99.90
2018-05-25T07:05:39.988Z,99.90
2018-05-25T07:08:07.636Z,99.90
2018-05-25T07:10:35.206Z,99.90
2018-05-25T07:13:02.764Z,99.90
2018-05-25T07:15:30.296Z,99.90
2018-05-25T07:17:57.831Z,99.90
2018-05-25T07:20:26.385Z,99.90
2018-05-25T07:22:53.914Z,99.90
2018-05-25T07:25:21.461Z,99.30
2018-05-25T07:27:49.019Z,99.70
2018-05-25T07:30:17.542Z,99.50
2018-05-25T07:32:47.090Z,99.00
2018-05-25T07:35:14.673Z,99.50
2018-05-25T07:37:43.260Z,99.90
2018-05-25T07:40:10.801Z,99.70
2018-05-25T07:42:39.203Z,99.90
2018-05-25T07:45:06.758Z,99.90
2018-05-25T07:47:34.330Z,98.90
2018-05-25T07:50:01.871Z,98.90
2018-05-25T07:52:30.267Z,98.20
2018-05-25T07:54:57.794Z,98.30
2018-05-25T07:57:25.403Z,98.10
2018-05-25T07:59:52.947Z,98.00
2018-05-25T08:02:20.524Z,97.80
2018-05-25T08:04:50.050Z,98.00
2018-05-25T08:07:17.596Z,97.80
2018-05-25T08:09:45.157Z,97.60
2018-05-25T08:12:12.697Z,97.50
2018-05-25T08:14:40.247Z,97.90
2018-05-25T08:17:07.801Z,97.80
2018-05-25T08:19:35.368Z,97.50
2018-05-25T08:22:02.977Z,97.00
2018-05-25T08:24:30.457Z,97.10
2018-05-25T08:26:58.012Z,97.20
2018-05-25T08:29:26.319Z,96.60
2018-05-25T08:31:53.867Z,96.60
2018-05-25T08:34:21.404Z,96.40
2018-05-25T08:36:49.725Z,96.30
2018-05-25T08:39:17.255Z,96.20
2018-05-25T08:41:45.572Z,96.10
2018-05-25T08:44:13.100Z,96.10
2018-05-25T08:46:40.700Z,96.10
2018-05-25T08:49:08.279Z,95.30
2018-05-25T08:51:35.898Z,95.80
2018-05-25T08:54:03.464Z,96.10
2018-05-25T08:56:31.949Z,95.70
2018-05-25T08:58:59.504Z,94.80
2018-05-25T09:01:27.051Z,94.40
2018-05-25T09:03:54.588Z,94.50
2018-05-25T09:06:22.171Z,93.30
2018-05-25T09:08:49.692Z,94.00
2018-05-25T09:11:19.956Z,92.40
2018-05-25T09:13:47.487Z,92.30
2018-05-25T09:16:16.764Z,92.20
2018-05-25T09:18:44.293Z,92.20
2018-05-25T09:21:13.895Z,91.50
2018-05-25T09:23:41.433Z,93.40
2018-05-25T09:26:08.968Z,94.30
2018-05-25T09:28:37.284Z,94.40
2018-05-25T09:31:04.826Z,94.40
2018-05-25T09:33:32.405Z,93.90
2018-05-25T09:35:59.946Z,93.70
2018-05-25T09:38:27.500Z,93.60
2018-05-25T09:40:55.021Z,93.90
2018-05-25T09:43:23.359Z,93.20
2018-05-25T09:45:51.116Z,93.20
2018-05-25T09:48:18.645Z,93.20
2018-05-25T09:50:46.982Z,92.50
2018-05-25T09:53:14.521Z,92.40
2018-05-25T09:55:42.087Z,92.00
2018-05-25T09:58:09.623Z,91.50
2018-05-25T10:00:39.102Z,90.80
2018-05-25T10:03:06.687Z,91.00
2018-05-25T10:05:34.248Z,91.60
2018-05-25T10:08:01.793Z,91.00
2018-05-25T10:10:30.268Z,90.40
2018-05-25T10:12:57.843Z,90.40
2018-05-25T10:15:25.392Z,89.60
2018-05-25T10:17:52.977Z,90.20
2018-05-25T10:20:21.511Z,90.00
2018-05-25T10:22:49.063Z,87.90
2018-05-25T10:25:17.397Z,86.90
2018-05-25T10:27:45.954Z,87.00
2018-05-25T10:30:13.535Z,83.40
2018-05-25T10:32:41.063Z,84.10
2018-05-25T10:35:08.672Z,83.50
2018-05-25T10:37:36.252Z,82.90
2018-05-25T10:40:06.557Z,81.50
2018-05-25T10:42:34.136Z,81.40
2018-05-25T10:45:01.693Z,82.20
2018-05-25T10:47:31.189Z,80.10
2018-05-25T10:49:58.732Z,79.70
2018-05-25T10:52:26.308Z,80.10
2018-05-25T10:54:53.847Z,81.60
2018-05-25T10:57:21.596Z,77.50
2018-05-25T10:59:49.161Z,78.20
2018-05-25T11:02:16.713Z,76.60
2018-05-25T11:04:44.294Z,77.10
2018-05-25T11:07:11.822Z,76.10
2018-05-25T11:09:39.393Z,76.60
2018-05-25T11:12:06.949Z,77.60
2018-05-25T11:14:34.564Z,76.20
2018-05-25T11:17:02.145Z,76.40
2018-05-25T11:19:29.681Z,73.90
2018-05-25T11:21:59.060Z,75.40
2018-05-25T11:24:26.588Z,75.40
2018-05-25T11:26:54.162Z,74.50
2018-05-25T11:29:21.687Z,75.70
2018-05-25T11:31:49.263Z,75.60
2018-05-25T11:34:16.796Z,73.50
2018-05-25T11:36:45.106Z,71.70
2018-05-25T11:39:12.663Z,71.70
2018-05-25T11:41:40.224Z,72.90
2018-05-25T11:44:07.786Z,71.30
2018-05-25T11:46:35.317Z,71.40
2018-05-25T11:49:02.907Z,72.30
2018-05-25T11:51:30.477Z,68.80
2018-05-25T11:53:58.033Z,71.60
2018-05-25T11:56:25.563Z,73.10
2018-05-25T11:58:53.113Z,72.70
2018-05-25T12:01:22.608Z,71.80
2018-05-25T12:03:50.148Z,72.90
2018-05-25T12:06:18.667Z,74.10
2018-05-25T12:08:55.948Z,72.90
2018-05-25T12:11:23.507Z,71.70
2018-05-25T12:13:51.035Z,69.30
2018-05-25T12:16:18.668Z,70.10
2018-05-25T12:18:46.217Z,72.70
2018-05-25T12:21:13.759Z,74.00
2018-05-25T12:23:41.335Z,70.70
2018-05-25T12:26:08.884Z,71.60
2018-05-25T12:28:36.465Z,72.60
2018-05-25T12:31:04.017Z,71.90
2018-05-25T12:33:31.564Z,67.20
2018-05-25T12:36:00.053Z,67.70
2018-05-25T12:38:28.561Z,67.00
2018-05-25T12:40:56.108Z,69.70
2018-05-25T12:43:23.635Z,65.70
2018-05-25T12:45:51.203Z,63.50
2018-05-25T12:48:20.713Z,65.70
2018-05-25T12:50:48.262Z,67.30
2018-05-25T12:53:15.822Z,63.20
2018-05-25T12:55:43.385Z,64.00
2018-05-25T12:58:11.906Z,63.90
2018-05-25T13:00:39.436Z,64.80
2018-05-25T13:03:06.953Z,63.10
2018-05-25T13:05:34.505Z,62.60
2018-05-25T13:08:02.799Z,62.30
2018-05-25T13:10:30.355Z,62.40
2018-05-25T13:12:57.918Z,66.00
2018-05-25T13:15:25.471Z,66.50
2018-05-25T13:17:53.788Z,62.20
2018-05-25T13:20:21.345Z,62.20
2018-05-25T13:22:48.884Z,61.80
2018-05-25T13:25:16.448Z,63.40
2018-05-25T13:27:44.959Z,58.40
2018-05-25T13:30:12.531Z,57.60
2018-05-25T13:32:40.091Z,59.30
2018-05-25T13:35:07.617Z,61.10
2018-05-25T13:37:37.117Z,62.30
2018-05-25T13:40:05.642Z,63.80
2018-05-25T13:42:33.174Z,62.80
2018-05-25T13:45:00.724Z,62.00
2018-05-25T13:47:28.292Z,64.10
2018-05-25T13:49:55.837Z,63.20
2018-05-25T13:52:23.364Z,61.20
2018-05-25T13:54:50.948Z,59.40
2018-05-25T13:57:18.483Z,57.30
2018-05-25T13:59:46.869Z,63.30
2018-05-25T14:02:15.380Z,62.60
2018-05-25T14:04:42.913Z,68.80
2018-05-25T14:07:10.482Z,72.40
2018-05-25T14:09:39.939Z,73.60
2018-05-25T14:12:07.503Z,74.70
2018-05-25T14:14:35.025Z,76.50
2018-05-25T14:17:02.597Z,71.50
2018-05-25T14:19:30.175Z,75.40
2018-05-25T14:21:57.777Z,80.90
2018-05-25T14:24:25.313Z,82.50
2018-05-25T14:26:52.893Z,80.40
2018-05-25T14:29:20.462Z,83.20
2018-05-25T14:31:47.992Z,85.80
2018-05-25T14:34:15.546Z,88.40
2018-05-25T14:36:43.084Z,90.60
2018-05-25T14:39:10.673Z,91.30
2018-05-25T14:41:38.226Z,91.10
2018-05-25T14:44:06.527Z,90.90
2018-05-25T14:46:34.097Z,90.90
2018-05-25T14:49:01.645Z,87.50
2018-05-25T14:51:29.240Z,77.40
2018-05-25T14:53:56.821Z,71.80
2018-05-25T14:56:24.389Z,71.90
2018-05-25T14:58:51.948Z,68.40
2018-05-25T15:01:20.273Z,55.40
2018-05-25T15:03:47.870Z,54.70
2018-05-25T15:06:15.412Z,53.40
2018-05-25T15:08:42.977Z,54.90
2018-05-25T15:11:11.465Z,54.90
2018-05-25T15:13:39.025Z,53.70
2018-05-25T15:16:06.637Z,51.90
2018-05-25T15:18:34.171Z,50.90
2018-05-25T15:21:01.738Z,49.80
2018-05-25T15:23:29.282Z,49.70
2018-05-25T15:25:56.846Z,50.30
2018-05-25T15:28:25.153Z,45.90
2018-05-25T15:30:54.791Z,46.40
2018-05-25T15:33:22.283Z,45.70
2018-05-25T15:35:49.842Z,44.00
2018-05-25T15:38:17.418Z,44.00
2018-05-25T15:40:45.062Z,44.80
2018-05-25T15:43:12.655Z,44.10
2018-05-25T15:45:40.206Z,44.40
2018-05-25T15:48:07.773Z,43.70
2018-05-25T15:50:37.261Z,45.50
2018-05-25T15:53:05.769Z,44.80
2018-05-25T15:55:33.328Z,44.20
2018-05-25T15:58:00.864Z,42.70
2018-05-25T16:00:28.420Z,43.20
2018-05-25T16:02:56.716Z,44.10
2018-05-25T16:05:24.268Z,44.10
2018-05-25T16:07:52.748Z,42.80
2018-05-25T16:10:23.305Z,42.80
2018-05-25T16:12:50.849Z,42.70
2018-05-25T16:15:18.420Z,42.20
2018-05-25T16:17:46.030Z,41.30
2018-05-25T16:20:14.355Z,38.10
2018-05-25T16:22:41.894Z,38.10
2018-05-25T16:25:09.473Z,40.00
2018-05-25T16:27:37.029Z,40.40
2018-05-25T16:30:04.583Z,38.50
2018-05-25T16:32:32.111Z,39.20
2018-05-25T16:35:00.457Z,39.50
2018-05-25T16:37:27.989Z,40.70
2018-05-25T16:39:55.548Z,40.60
2018-05-25T16:42:23.091Z,42.00
2018-05-25T16:44:51.425Z,46.10
2018-05-25T16:47:18.976Z,46.00
2018-05-25T16:49:48.476Z,47.30
2018-05-25T16:52:16.063Z,48.60
2018-05-25T16:54:44.564Z,49.00
2018-05-25T16:57:12.125Z,50.30
2018-05-25T16:59:41.373Z,53.20
2018-05-25T17:02:08.943Z,53.10
2018-05-25T17:04:36.506Z,55.10
2018-05-25T17:07:04.068Z,55.30
2018-05-25T17:09:31.597Z,57.10
2018-05-25T17:11:59.155Z,57.90
2018-05-25T17:14:28.779Z,59.50
2018-05-25T17:16:57.280Z,58.80
2018-05-25T17:19:24.853Z,59.70
2018-05-25T17:21:52.569Z,59.30
2018-05-25T17:24:20.198Z,59.50
2018-05-25T17:26:47.693Z,60.90
2018-05-25T17:29:15.219Z,62.60
2018-05-25T17:31:43.553Z,63.70
2018-05-25T17:34:12.053Z,63.70
2018-05-25T17:36:39.638Z,63.70
2018-05-25T17:39:07.177Z,63.80
2018-05-25T17:41:34.733Z,63.30
2018-05-25T17:44:02.265Z,63.00
2018-05-25T17:46:29.823Z,63.70
2018-05-25T17:48:57.690Z,65.20
2018-05-25T17:51:25.214Z,66.40
2018-05-25T17:53:52.818Z,66.80
2018-05-25T17:56:20.346Z,67.50
2018-05-25T17:58:47.899Z,69.30
2018-05-25T18:01:16.400Z,69.00
2018-05-25T18:03:43.967Z,68.20
2018-05-25T18:06:11.490Z,68.80
2018-05-25T18:08:39.034Z,69.60
2018-05-25T18:11:07.546Z,71.00
2018-05-25T18:13:36.024Z,72.30
2018-05-25T18:16:03.578Z,73.70
2018-05-25T18:18:32.065Z,75.10
2018-05-25T18:20:59.610Z,77.90
2018-05-25T18:23:27.133Z,78.40
2018-05-25T18:25:54.704Z,79.30
2018-05-25T18:28:23.017Z,81.00
2018-05-25T18:30:50.532Z,80.90
2018-05-25T18:33:18.092Z,81.50
2018-05-25T18:35:46.605Z,83.10
2018-05-25T18:38:14.182Z,83.80
2018-05-25T18:40:41.701Z,85.00
2018-05-25T18:43:09.260Z,86.10
2018-05-25T18:45:36.797Z,88.00
2018-05-25T18:48:04.324Z,89.70
2018-05-25T18:50:32.805Z,90.50
2018-05-25T18:53:00.331Z,91.10
2018-05-25T18:55:27.884Z,91.70
2018-05-25T18:57:55.426Z,92.10
2018-05-25T19:00:22.993Z,92.80
2018-05-25T19:02:51.289Z,93.60
2018-05-25T19:05:18.924Z,93.60
2018-05-25T19:07:46.460Z,93.90
2018-05-25T19:10:13.991Z,94.40
2018-05-25T19:12:42.653Z,94.70
2018-05-25T19:15:10.200Z,94.90
2018-05-25T19:17:37.759Z,95.00
2018-05-25T19:20:06.122Z,95.70
2018-05-25T19:22:34.433Z,96.10
2018-05-25T19:25:01.989Z,96.00
2018-05-25T19:27:30.509Z,96.40
2018-05-25T19:29:58.072Z,96.60
2018-05-25T19:32:25.645Z,96.80
2018-05-25T19:34:53.174Z,97.00
2018-05-25T19:37:22.675Z,97.30
2018-05-25T19:39:51.175Z,97.60
2018-05-25T19:42:18.734Z,97.90
2018-05-25T19:44:46.316Z,98.20
2018-05-25T19:47:20.645Z,98.20
2018-05-25T19:49:48.982Z,98.30
2018-05-25T19:52:16.543Z,98.30
2018-05-25T19:54:44.126Z,98.30
2018-05-25T19:57:11.692Z,98.40
2018-05-25T19:59:39.286Z,98.40
2018-05-25T20:02:06.813Z,98.60
2018-05-25T20:04:36.243Z,98.90
2018-05-25T20:07:03.841Z,99.10
2018-05-25T20:09:32.136Z,99.40
2018-05-25T20:11:59.684Z,99.50
2018-05-25T20:14:27.205Z,99.30
2018-05-25T20:16:54.754Z,99.40
2018-05-25T20:19:22.355Z,99.70
2018-05-25T20:21:49.931Z,99.90
2018-05-25T20:24:17.520Z,99.90
2018-05-25T20:26:45.844Z,99.90
2018-05-25T20:29:13.413Z,99.90
2018-05-25T20:31:40.973Z,99.90
2018-05-25T20:34:08.500Z,99.90
2018-05-25T20:36:36.099Z,99.90
2018-05-25T20:39:03.669Z,99.90
2018-05-25T20:41:31.300Z,99.90
2018-05-25T20:43:58.902Z,99.90
2018-05-25T20:46:27.244Z,99.90
2018-05-25T20:48:54.939Z,99.90
2018-05-25T20:51:23.779Z,99.90
2018-05-25T20:53:52.292Z,99.90
2018-05-25T20:56:19.874Z,99.90
2018-05-25T20:58:47.421Z,99.90
2018-05-25T21:01:15.722Z,99.90
2018-05-25T21:03:44.048Z,99.90
2018-05-25T21:06:11.617Z,99.90
2018-05-25T21:08:39.149Z,99.90
2018-05-25T21:11:06.722Z,99.90
2018-05-25T21:13:34.289Z,99.90
2018-05-25T21:16:01.817Z,99.90
2018-05-25T21:18:29.352Z,99.90
2018-05-25T21:20:56.921Z,99.90
2018-05-25T21:23:24.445Z,99.90
2018-05-25T21:25:52.765Z,99.90
2018-05-25T21:28:20.299Z,99.90
2018-05-25T21:30:47.824Z,99.90
2018-05-25T21:33:15.366Z,99.90
2018-05-25T21:35:42.892Z,99.90
2018-05-25T21:38:10.454Z,99.90
2018-05-25T21:40:37.992Z,99.90
2018-05-25T21:43:05.554Z,99.90
2018-05-25T21:45:34.040Z,99.90
2018-05-25T21:48:02.365Z,99.90
2018-05-25T21:50:29.887Z,99.90
2018-05-25T21:52:58.173Z,99.90
2018-05-25T21:55:25.732Z,99.90
2018-05-25T21:57:54.235Z,99.90
2018-05-25T22:00:21.794Z,99.90
2018-05-25T22:02:49.316Z,99.90
2018-05-25T22:05:17.642Z,99.90
2018-05-25T22:07:45.173Z,99.90
2018-05-25T22:10:12.977Z,99.90
2018-05-25T22:12:40.533Z,99.90
2018-05-25T22:15:08.093Z,99.90
2018-05-25T22:17:35.619Z,99.90
2018-05-25T22:20:03.148Z,99.90
2018-05-25T22:22:30.740Z,99.90
2018-05-25T22:24:58.262Z,99.90
2018-05-25T22:27:26.781Z,99.90
2018-05-25T22:29:54.333Z,99.90
2018-05-25T22:32:21.857Z,99.90
2018-05-25T22:34:49.445Z,99.90
2018-05-25T22:37:17.021Z,99.90
2018-05-25T22:39:44.577Z,99.90
2018-05-25T22:42:12.649Z,99.90
2018-05-25T22:44:52.101Z,99.90
2018-05-25T22:47:31.356Z,99.90
2018-05-25T22:50:10.816Z,99.90
2018-05-25T22:52:43.564Z,99.90
2018-05-25T22:55:12.951Z,99.90
2018-05-25T22:57:40.474Z,99.90
2018-05-25T23:00:08.798Z,99.90
2018-05-25T23:02:38.286Z,99.90
2018-05-25T23:05:05.871Z,99.90
2018-05-25T23:07:40.053Z,99.90
2018-05-25T23:10:07.690Z,99.90
2018-05-25T23:12:35.234Z,99.90
2018-05-25T23:15:02.808Z,99.90
2018-05-25T23:17:30.352Z,99.90
2018-05-25T23:19:57.916Z,99.90
2018-05-25T23:22:26.233Z,99.90
2018-05-25T23:24:53.754Z,99.90
2018-05-25T23:27:21.312Z,99.90
2018-05-25T23:29:48.833Z,99.90
2018-05-25T23:32:16.388Z,99.90
2018-05-25T23:34:43.923Z,99.90
2018-05-25T23:37:11.470Z,99.90
2018-05-25T23:39:39.039Z,99.90
2018-05-25T23:42:06.585Z,99.30
2018-05-25T23:44:34.151Z,98.80
2018-05-25T23:47:01.863Z,98.20
2018-05-25T23:49:30.409Z,98.60
2018-05-25T23:51:57.953Z,99.00
2018-05-25T23:54:25.506Z,99.50
2018-05-25T23:56:53.052Z,99.90
2018-05-25T23:59:22.337Z,99.90
